sensor_id;sensor_type;location;lat;lon;timestamp;pressure;altitude;pressure_sealevel;temperature;humidity
43701;BME280;58809;47.984;7.964;2023-05-03T00:02:11;97881.03;;;7.71;93.30
43701;BME280;58809;47.984;7.964;2023-05-03T00:05:13;97875.63;;;7.73;93.37
43701;BME280;58809;47.984;7.964;2023-05-03T00:08:18;97869.28;;;7.66;93.21
43701;BME280;58809;47.984;7.964;2023-05-03T00:11:19;97872.63;;;7.58;93.40
43701;BME280;58809;47.984;7.964;2023-05-03T00:14:21;97870.56;;;7.52;93.99
43701;BME280;58809;47.984;7.964;2023-05-03T00:17:22;97860.66;;;7.36;94.10
43701;BME280;58809;47.984;7.964;2023-05-03T00:20:25;97859.28;;;7.32;94.90
43701;BME280;58809;47.984;7.964;2023-05-03T00:23:26;97864.41;;;7.33;95.21
43701;BME280;58809;47.984;7.964;2023-05-03T00:26:28;97860.97;;;7.33;94.97
43701;BME280;58809;47.984;7.964;2023-05-03T00:29:30;97863.19;;;7.28;94.98
43701;BME280;58809;47.984;7.964;2023-05-03T00:32:32;97854.78;;;7.15;96.29
43701;BME280;58809;47.984;7.964;2023-05-03T00:35:33;97848.53;;;7.16;96.24
43701;BME280;58809;47.984;7.964;2023-05-03T00:38:35;97848.13;;;7.10;97.28
43701;BME280;58809;47.984;7.964;2023-05-03T00:41:37;97854.38;;;7.09;97.43
43701;BME280;58809;47.984;7.964;2023-05-03T00:44:39;97852.03;;;7.06;97.49
43701;BME280;58809;47.984;7.964;2023-05-03T00:47:40;97851.59;;;7.11;97.63
43701;BME280;58809;47.984;7.964;2023-05-03T00:50:43;97849.41;;;7.06;97.58
43701;BME280;58809;47.984;7.964;2023-05-03T00:53:45;97851.63;;;7.01;97.38
43701;BME280;58809;47.984;7.964;2023-05-03T00:56:47;97848.44;;;6.98;97.75
43701;BME280;58809;47.984;7.964;2023-05-03T00:59:54;97845.81;;;6.98;97.62
43701;BME280;58809;47.984;7.964;2023-05-03T01:02:56;97851.91;;;6.98;97.80
43701;BME280;58809;47.984;7.964;2023-05-03T01:06:27;97843.63;;;6.93;98.33
43701;BME280;58809;47.984;7.964;2023-05-03T01:09:37;97847.75;;;6.96;98.49
43701;BME280;58809;47.984;7.964;2023-05-03T01:12:55;97837.53;;;6.92;99.13
43701;BME280;58809;47.984;7.964;2023-05-03T01:16:11;97838.34;;;6.93;98.87
43701;BME280;58809;47.984;7.964;2023-05-03T01:22:36;97832.81;;;6.96;98.71
43701;BME280;58809;47.984;7.964;2023-05-03T01:25:39;97835.00;;;7.01;98.92
43701;BME280;58809;47.984;7.964;2023-05-03T01:28:40;97825.56;;;7.08;99.16
43701;BME280;58809;47.984;7.964;2023-05-03T01:31:54;97834.28;;;7.18;99.22
43701;BME280;58809;47.984;7.964;2023-05-03T01:35:11;97838.34;;;7.40;98.22
43701;BME280;58809;47.984;7.964;2023-05-03T01:38:16;97831.53;;;7.47;97.22
43701;BME280;58809;47.984;7.964;2023-05-03T01:41:20;97814.84;;;7.75;96.88
43701;BME280;58809;47.984;7.964;2023-05-03T01:44:23;97816.94;;;7.99;94.80
43701;BME280;58809;47.984;7.964;2023-05-03T01:47:25;97822.56;;;8.04;93.70
43701;BME280;58809;47.984;7.964;2023-05-03T01:50:27;97823.91;;;7.72;93.24
43701;BME280;58809;47.984;7.964;2023-05-03T01:53:28;97821.59;;;7.31;95.64
43701;BME280;58809;47.984;7.964;2023-05-03T01:56:33;97819.72;;;7.14;97.05
43701;BME280;58809;47.984;7.964;2023-05-03T01:59:34;97824.31;;;7.12;98.89
43701;BME280;58809;47.984;7.964;2023-05-03T02:02:36;97822.91;;;7.18;99.07
43701;BME280;58809;47.984;7.964;2023-05-03T02:05:38;97823.56;;;7.20;98.93
43701;BME280;58809;47.984;7.964;2023-05-03T02:08:39;97821.13;;;7.18;99.29
43701;BME280;58809;47.984;7.964;2023-05-03T02:11:41;97824.84;;;7.16;99.21
43701;BME280;58809;47.984;7.964;2023-05-03T02:14:44;97823.19;;;7.15;100.00
43701;BME280;58809;47.984;7.964;2023-05-03T02:17:46;97820.94;;;7.20;99.65
43701;BME280;58809;47.984;7.964;2023-05-03T02:20:50;97822.44;;;7.32;100.00
43701;BME280;58809;47.984;7.964;2023-05-03T02:23:51;97816.00;;;7.44;99.27
43701;BME280;58809;47.984;7.964;2023-05-03T02:26:55;97812.56;;;7.62;99.04
43701;BME280;58809;47.984;7.964;2023-05-03T02:29:57;97807.72;;;7.85;97.23
43701;BME280;58809;47.984;7.964;2023-05-03T02:32:59;97805.19;;;8.11;94.40
43701;BME280;58809;47.984;7.964;2023-05-03T02:36:02;97805.19;;;8.29;92.63
43701;BME280;58809;47.984;7.964;2023-05-03T02:39:03;97796.59;;;8.27;92.10
43701;BME280;58809;47.984;7.964;2023-05-03T02:42:06;97792.53;;;8.33;91.59
43701;BME280;58809;47.984;7.964;2023-05-03T02:45:09;97803.16;;;8.41;91.26
43701;BME280;58809;47.984;7.964;2023-05-03T02:48:11;97796.06;;;8.41;90.53
43701;BME280;58809;47.984;7.964;2023-05-03T02:51:13;97796.38;;;8.56;89.39
43701;BME280;58809;47.984;7.964;2023-05-03T02:54:14;97804.28;;;8.56;89.11
43701;BME280;58809;47.984;7.964;2023-05-03T02:57:17;97799.44;;;8.52;89.09
43701;BME280;58809;47.984;7.964;2023-05-03T03:00:18;97812.28;;;8.46;90.04
43701;BME280;58809;47.984;7.964;2023-05-03T03:03:20;97810.34;;;8.39;90.19
43701;BME280;58809;47.984;7.964;2023-05-03T03:06:22;97806.38;;;8.35;90.60
43701;BME280;58809;47.984;7.964;2023-05-03T03:09:24;97807.06;;;8.37;90.42
43701;BME280;58809;47.984;7.964;2023-05-03T03:12:27;97809.69;;;8.37;90.15
43701;BME280;58809;47.984;7.964;2023-05-03T03:15:30;97810.69;;;8.36;90.28
43701;BME280;58809;47.984;7.964;2023-05-03T03:18:31;97814.00;;;8.38;90.19
43701;BME280;58809;47.984;7.964;2023-05-03T03:21:35;97814.81;;;8.38;91.03
43701;BME280;58809;47.984;7.964;2023-05-03T03:24:37;97812.50;;;8.35;90.43
43701;BME280;58809;47.984;7.964;2023-05-03T03:27:39;97808.63;;;8.29;90.15
43701;BME280;58809;47.984;7.964;2023-05-03T03:30:41;97807.53;;;8.14;90.83
43701;BME280;58809;47.984;7.964;2023-05-03T03:33:52;97806.97;;;7.93;91.42
43701;BME280;58809;47.984;7.964;2023-05-03T03:36:54;97814.63;;;7.68;93.41
43701;BME280;58809;47.984;7.964;2023-05-03T03:39:56;97812.81;;;7.68;95.02
43701;BME280;58809;47.984;7.964;2023-05-03T03:42:57;97816.38;;;7.77;94.80
43701;BME280;58809;47.984;7.964;2023-05-03T03:45:59;97818.56;;;7.82;95.10
43701;BME280;58809;47.984;7.964;2023-05-03T03:49:01;97823.28;;;7.78;94.89
43701;BME280;58809;47.984;7.964;2023-05-03T03:52:04;97817.31;;;7.58;95.37
43701;BME280;58809;47.984;7.964;2023-05-03T03:55:09;97818.25;;;7.39;96.37
43701;BME280;58809;47.984;7.964;2023-05-03T03:58:11;97824.38;;;7.30;97.52
43701;BME280;58809;47.984;7.964;2023-05-03T04:01:13;97821.06;;;7.28;98.12
43701;BME280;58809;47.984;7.964;2023-05-03T04:04:14;97820.94;;;7.20;97.75
43701;BME280;58809;47.984;7.964;2023-05-03T04:07:17;97826.66;;;7.15;98.47
43701;BME280;58809;47.984;7.964;2023-05-03T04:10:19;97823.34;;;7.13;98.94
43701;BME280;58809;47.984;7.964;2023-05-03T04:13:20;97817.41;;;7.01;98.97
43701;BME280;58809;47.984;7.964;2023-05-03T04:16:25;97822.66;;;7.01;100.00
43701;BME280;58809;47.984;7.964;2023-05-03T04:19:26;97828.25;;;6.98;100.00
43701;BME280;58809;47.984;7.964;2023-05-03T04:22:29;97820.22;;;6.90;100.00
43701;BME280;58809;47.984;7.964;2023-05-03T04:25:31;97823.13;;;6.97;100.00
43701;BME280;58809;47.984;7.964;2023-05-03T04:28:41;97823.53;;;6.92;100.00
43701;BME280;58809;47.984;7.964;2023-05-03T04:31:43;97831.88;;;6.87;100.00
43701;BME280;58809;47.984;7.964;2023-05-03T04:34:45;97827.28;;;6.89;100.00
43701;BME280;58809;47.984;7.964;2023-05-03T04:37:50;97827.28;;;6.89;100.00
43701;BME280;58809;47.984;7.964;2023-05-03T04:40:56;97828.53;;;6.95;100.00
43701;BME280;58809;47.984;7.964;2023-05-03T04:43:59;97816.59;;;7.01;100.00
43701;BME280;58809;47.984;7.964;2023-05-03T04:47:01;97822.13;;;7.07;100.00
43701;BME280;58809;47.984;7.964;2023-05-03T04:50:03;97834.69;;;7.13;100.00
43701;BME280;58809;47.984;7.964;2023-05-03T04:53:05;97827.34;;;7.17;100.00
43701;BME280;58809;47.984;7.964;2023-05-03T04:56:10;97829.84;;;7.19;100.00
43701;BME280;58809;47.984;7.964;2023-05-03T04:59:14;97830.22;;;7.24;100.00
43701;BME280;58809;47.984;7.964;2023-05-03T05:02:16;97827.69;;;7.32;100.00
43701;BME280;58809;47.984;7.964;2023-05-03T05:05:18;97827.69;;;7.32;100.00
43701;BME280;58809;47.984;7.964;2023-05-03T05:08:22;97827.41;;;7.35;100.00
43701;BME280;58809;47.984;7.964;2023-05-03T05:11:28;97832.34;;;7.48;100.00
43701;BME280;58809;47.984;7.964;2023-05-03T05:14:31;97828.69;;;7.59;99.91
43701;BME280;58809;47.984;7.964;2023-05-03T05:17:33;97830.13;;;7.71;99.16
43701;BME280;58809;47.984;7.964;2023-05-03T05:20:36;97833.41;;;7.83;98.67
43701;BME280;58809;47.984;7.964;2023-05-03T05:23:39;97837.91;;;7.90;97.92
43701;BME280;58809;47.984;7.964;2023-05-03T05:26:42;97841.78;;;7.96;97.27
43701;BME280;58809;47.984;7.964;2023-05-03T05:29:44;97838.38;;;8.04;97.24
43701;BME280;58809;47.984;7.964;2023-05-03T05:32:45;97835.75;;;8.22;96.81
43701;BME280;58809;47.984;7.964;2023-05-03T05:35:48;97847.53;;;8.45;96.62
43701;BME280;58809;47.984;7.964;2023-05-03T05:38:53;97847.81;;;8.78;94.63
43701;BME280;58809;47.984;7.964;2023-05-03T05:41:54;97838.78;;;9.07;93.53
43701;BME280;58809;47.984;7.964;2023-05-03T05:44:56;97839.56;;;9.34;91.33
43701;BME280;58809;47.984;7.964;2023-05-03T05:47:58;97841.47;;;9.50;90.19
43701;BME280;58809;47.984;7.964;2023-05-03T05:51:00;97834.94;;;9.70;89.58
43701;BME280;58809;47.984;7.964;2023-05-03T05:54:02;97841.94;;;9.88;87.65
43701;BME280;58809;47.984;7.964;2023-05-03T05:57:04;97840.16;;;9.96;86.80
43701;BME280;58809;47.984;7.964;2023-05-03T06:00:06;97837.88;;;10.10;86.70
43701;BME280;58809;47.984;7.964;2023-05-03T06:03:16;97837.53;;;10.29;85.52
43701;BME280;58809;47.984;7.964;2023-05-03T06:06:20;97839.06;;;10.40;84.04
43701;BME280;58809;47.984;7.964;2023-05-03T06:09:21;97838.44;;;10.46;83.71
43701;BME280;58809;47.984;7.964;2023-05-03T06:12:29;97829.50;;;10.55;82.95
43701;BME280;58809;47.984;7.964;2023-05-03T06:15:31;97828.34;;;10.66;81.97
43701;BME280;58809;47.984;7.964;2023-05-03T06:18:33;97826.00;;;10.71;81.89
43701;BME280;58809;47.984;7.964;2023-05-03T06:21:34;97826.00;;;10.88;81.01
43701;BME280;58809;47.984;7.964;2023-05-03T06:24:36;97831.63;;;11.01;79.89
43701;BME280;58809;47.984;7.964;2023-05-03T06:27:38;97824.63;;;11.16;79.58
43701;BME280;58809;47.984;7.964;2023-05-03T06:30:41;97827.41;;;11.31;78.54
43701;BME280;58809;47.984;7.964;2023-05-03T06:33:46;97826.22;;;11.42;77.48
43701;BME280;58809;47.984;7.964;2023-05-03T06:36:48;97831.28;;;11.52;77.74
43701;BME280;58809;47.984;7.964;2023-05-03T06:39:51;97829.28;;;11.62;76.97
43701;BME280;58809;47.984;7.964;2023-05-03T06:42:53;97823.00;;;11.63;76.61
43701;BME280;58809;47.984;7.964;2023-05-03T06:46:06;97814.00;;;11.72;76.00
43701;BME280;58809;47.984;7.964;2023-05-03T06:49:07;97815.88;;;11.87;75.54
43701;BME280;58809;47.984;7.964;2023-05-03T06:52:09;97813.53;;;12.00;74.90
43701;BME280;58809;47.984;7.964;2023-05-03T06:55:12;97811.59;;;12.17;74.40
43701;BME280;58809;47.984;7.964;2023-05-03T06:58:13;97796.97;;;12.21;73.97
43701;BME280;58809;47.984;7.964;2023-05-03T07:01:16;97798.75;;;12.29;73.83
43701;BME280;58809;47.984;7.964;2023-05-03T07:04:19;97802.28;;;12.44;73.76
43701;BME280;58809;47.984;7.964;2023-05-03T07:07:21;97798.47;;;12.62;73.40
43701;BME280;58809;47.984;7.964;2023-05-03T07:10:23;97783.94;;;12.73;73.25
43701;BME280;58809;47.984;7.964;2023-05-03T07:13:25;97781.59;;;12.78;73.08
43701;BME280;58809;47.984;7.964;2023-05-03T07:16:27;97782.00;;;12.89;72.64
43701;BME280;58809;47.984;7.964;2023-05-03T07:19:29;97774.38;;;13.01;71.79
43701;BME280;58809;47.984;7.964;2023-05-03T07:22:30;97778.31;;;13.05;71.79
43701;BME280;58809;47.984;7.964;2023-05-03T07:25:32;97778.41;;;13.12;71.88
43701;BME280;58809;47.984;7.964;2023-05-03T07:28:34;97765.03;;;13.20;71.32
43701;BME280;58809;47.984;7.964;2023-05-03T07:31:35;97763.00;;;13.22;70.46
43701;BME280;58809;47.984;7.964;2023-05-03T07:34:37;97762.28;;;13.28;70.62
43701;BME280;58809;47.984;7.964;2023-05-03T07:37:39;97755.91;;;13.38;70.18
43701;BME280;58809;47.984;7.964;2023-05-03T07:40:40;97757.44;;;13.47;69.67
43701;BME280;58809;47.984;7.964;2023-05-03T07:43:42;97746.31;;;13.58;69.38
43701;BME280;58809;47.984;7.964;2023-05-03T07:46:43;97757.09;;;13.72;69.04
43701;BME280;58809;47.984;7.964;2023-05-03T07:49:45;97758.09;;;13.85;68.70
43701;BME280;58809;47.984;7.964;2023-05-03T07:52:48;97752.13;;;13.83;69.63
43701;BME280;58809;47.984;7.964;2023-05-03T07:55:53;97762.41;;;13.72;70.68
43701;BME280;58809;47.984;7.964;2023-05-03T07:58:55;97760.25;;;13.60;71.42
43701;BME280;58809;47.984;7.964;2023-05-03T08:02:10;97763.88;;;13.38;72.30
43701;BME280;58809;47.984;7.964;2023-05-03T08:05:12;97762.78;;;13.32;72.62
43701;BME280;58809;47.984;7.964;2023-05-03T08:08:15;97775.50;;;13.37;73.21
43701;BME280;58809;47.984;7.964;2023-05-03T08:11:16;97779.06;;;13.44;72.69
43701;BME280;58809;47.984;7.964;2023-05-03T08:14:18;97771.66;;;13.24;73.44
43701;BME280;58809;47.984;7.964;2023-05-03T08:17:20;97770.16;;;13.22;74.01
43701;BME280;58809;47.984;7.964;2023-05-03T08:20:22;97770.63;;;13.40;73.47
43701;BME280;58809;47.984;7.964;2023-05-03T08:23:24;97774.03;;;13.49;73.28
43701;BME280;58809;47.984;7.964;2023-05-03T08:26:26;97776.56;;;13.27;73.32
43701;BME280;58809;47.984;7.964;2023-05-03T08:29:28;97772.19;;;13.35;74.01
43701;BME280;58809;47.984;7.964;2023-05-03T08:32:30;97769.38;;;13.36;74.47
43701;BME280;58809;47.984;7.964;2023-05-03T08:35:31;97767.81;;;13.42;74.04
43701;BME280;58809;47.984;7.964;2023-05-03T08:38:33;97759.81;;;13.42;74.29
43701;BME280;58809;47.984;7.964;2023-05-03T08:41:35;97763.75;;;13.46;74.71
43701;BME280;58809;47.984;7.964;2023-05-03T08:44:43;97761.97;;;13.68;73.72
43701;BME280;58809;47.984;7.964;2023-05-03T08:47:45;97761.25;;;13.74;72.91
43701;BME280;58809;47.984;7.964;2023-05-03T08:50:50;97763.19;;;13.65;73.47
43701;BME280;58809;47.984;7.964;2023-05-03T08:53:52;97767.38;;;13.75;73.41
43701;BME280;58809;47.984;7.964;2023-05-03T08:56:53;97778.06;;;13.96;72.94
43701;BME280;58809;47.984;7.964;2023-05-03T08:59:55;97762.84;;;14.12;72.26
43701;BME280;58809;47.984;7.964;2023-05-03T09:03:02;97772.34;;;14.21;71.92
43701;BME280;58809;47.984;7.964;2023-05-03T09:06:18;97769.94;;;14.26;71.56
43701;BME280;58809;47.984;7.964;2023-05-03T09:09:30;97773.75;;;14.17;71.23
43701;BME280;58809;47.984;7.964;2023-05-03T09:12:36;97772.72;;;13.96;72.29
43701;BME280;58809;47.984;7.964;2023-05-03T09:15:37;97769.06;;;14.19;72.54
43701;BME280;58809;47.984;7.964;2023-05-03T09:18:39;97769.06;;;14.40;71.36
43701;BME280;58809;47.984;7.964;2023-05-03T09:21:45;97770.56;;;14.50;71.22
43701;BME280;58809;47.984;7.964;2023-05-03T09:24:51;97768.22;;;14.61;70.59
43701;BME280;58809;47.984;7.964;2023-05-03T09:28:00;97776.03;;;14.63;69.72
43701;BME280;58809;47.984;7.964;2023-05-03T09:31:06;97758.66;;;14.67;70.26
43701;BME280;58809;47.984;7.964;2023-05-03T09:34:20;97760.63;;;14.87;70.33
43701;BME280;58809;47.984;7.964;2023-05-03T09:37:35;97768.63;;;14.87;69.03
43701;BME280;58809;47.984;7.964;2023-05-03T09:40:46;97760.91;;;14.63;70.19
43701;BME280;58809;47.984;7.964;2023-05-03T09:43:50;97758.34;;;14.83;69.90
43701;BME280;58809;47.984;7.964;2023-05-03T09:47:05;97753.38;;;15.09;68.55
43701;BME280;58809;47.984;7.964;2023-05-03T09:50:06;97762.44;;;15.14;67.62
43701;BME280;58809;47.984;7.964;2023-05-03T09:53:08;97757.16;;;14.86;68.08
43701;BME280;58809;47.984;7.964;2023-05-03T09:56:10;97753.81;;;15.12;67.56
43701;BME280;58809;47.984;7.964;2023-05-03T09:59:15;97757.94;;;15.56;66.62
43701;BME280;58809;47.984;7.964;2023-05-03T10:02:17;97750.91;;;15.90;63.54
43701;BME280;58809;47.984;7.964;2023-05-03T10:05:20;97749.91;;;16.18;60.08
43701;BME280;58809;47.984;7.964;2023-05-03T10:08:47;97744.78;;;16.50;58.48
43701;BME280;58809;47.984;7.964;2023-05-03T10:11:53;97746.22;;;16.99;57.29
43701;BME280;58809;47.984;7.964;2023-05-03T10:14:55;97750.84;;;17.37;55.50
43701;BME280;58809;47.984;7.964;2023-05-03T10:18:00;97747.97;;;17.84;53.29
43701;BME280;58809;47.984;7.964;2023-05-03T10:21:11;97752.19;;;18.12;52.04
43701;BME280;58809;47.984;7.964;2023-05-03T10:24:15;97745.03;;;18.31;51.04
43701;BME280;58809;47.984;7.964;2023-05-03T10:27:17;97747.56;;;18.51;50.32
43701;BME280;58809;47.984;7.964;2023-05-03T10:30:25;97741.00;;;18.72;49.31
43701;BME280;58809;47.984;7.964;2023-05-03T10:33:32;97735.78;;;18.77;49.06
43701;BME280;58809;47.984;7.964;2023-05-03T10:36:37;97739.22;;;18.91;48.75
43701;BME280;58809;47.984;7.964;2023-05-03T10:39:51;97722.66;;;18.94;48.20
43701;BME280;58809;47.984;7.964;2023-05-03T10:42:54;97726.19;;;18.94;47.74
43701;BME280;58809;47.984;7.964;2023-05-03T10:46:04;97724.38;;;19.07;48.05
43701;BME280;58809;47.984;7.964;2023-05-03T10:49:14;97715.00;;;19.16;47.64
43701;BME280;58809;47.984;7.964;2023-05-03T10:55:36;97719.06;;;19.25;46.50
43701;BME280;58809;47.984;7.964;2023-05-03T10:58:46;97713.97;;;19.17;47.08
43701;BME280;58809;47.984;7.964;2023-05-03T11:01:50;97706.34;;;19.32;46.77
43701;BME280;58809;47.984;7.964;2023-05-03T11:04:55;97703.06;;;19.30;46.30
43701;BME280;58809;47.984;7.964;2023-05-03T11:08:14;97696.81;;;19.55;46.29
43701;BME280;58809;47.984;7.964;2023-05-03T11:11:19;97695.81;;;19.68;45.86
43701;BME280;58809;47.984;7.964;2023-05-03T11:14:21;97690.63;;;19.85;46.79
43701;BME280;58809;47.984;7.964;2023-05-03T11:17:22;97690.31;;;19.93;46.03
43701;BME280;58809;47.984;7.964;2023-05-03T11:20:24;97683.44;;;19.97;44.96
43701;BME280;58809;47.984;7.964;2023-05-03T11:23:27;97689.97;;;19.89;44.48
43701;BME280;58809;47.984;7.964;2023-05-03T11:26:34;97682.72;;;19.90;45.10
43701;BME280;58809;47.984;7.964;2023-05-03T11:29:37;97664.06;;;19.95;45.44
43701;BME280;58809;47.984;7.964;2023-05-03T11:32:41;97673.44;;;20.16;45.54
43701;BME280;58809;47.984;7.964;2023-05-03T11:35:43;97670.53;;;20.29;45.03
43701;BME280;58809;47.984;7.964;2023-05-03T11:38:44;97674.97;;;20.35;44.79
43701;BME280;58809;47.984;7.964;2023-05-03T11:42:00;97674.41;;;20.33;43.66
43701;BME280;58809;47.984;7.964;2023-05-03T11:45:03;97668.78;;;20.47;42.64
43701;BME280;58809;47.984;7.964;2023-05-03T11:48:06;97675.34;;;20.39;42.34
43701;BME280;58809;47.984;7.964;2023-05-03T11:51:08;97666.47;;;20.62;42.37
43701;BME280;58809;47.984;7.964;2023-05-03T11:54:11;97666.38;;;20.69;42.66
43701;BME280;58809;47.984;7.964;2023-05-03T11:57:26;97665.44;;;20.63;42.08
43701;BME280;58809;47.984;7.964;2023-05-03T12:00:28;97663.88;;;20.44;42.47
43701;BME280;58809;47.984;7.964;2023-05-03T12:03:30;97660.28;;;20.85;42.47
43701;BME280;58809;47.984;7.964;2023-05-03T12:06:35;97662.84;;;20.92;42.06
43701;BME280;58809;47.984;7.964;2023-05-03T12:09:39;97659.91;;;20.93;41.84
43701;BME280;58809;47.984;7.964;2023-05-03T12:12:53;97656.81;;;21.13;42.88
43701;BME280;58809;47.984;7.964;2023-05-03T12:15:58;97647.88;;;21.37;43.26
43701;BME280;58809;47.984;7.964;2023-05-03T12:19:28;97644.97;;;21.26;43.42
43701;BME280;58809;47.984;7.964;2023-05-03T12:22:33;97649.66;;;21.19;42.01
43701;BME280;58809;47.984;7.964;2023-05-03T12:25:35;97647.69;;;21.14;42.35
43701;BME280;58809;47.984;7.964;2023-05-03T12:28:38;97647.56;;;21.21;42.56
43701;BME280;58809;47.984;7.964;2023-05-03T12:31:41;97648.16;;;21.23;42.29
43701;BME280;58809;47.984;7.964;2023-05-03T12:34:44;97654.38;;;21.12;43.27
43701;BME280;58809;47.984;7.964;2023-05-03T12:38:02;97646.22;;;21.35;43.03
43701;BME280;58809;47.984;7.964;2023-05-03T12:41:09;97642.13;;;21.73;42.52
43701;BME280;58809;47.984;7.964;2023-05-03T12:44:16;97641.41;;;21.78;43.14
43701;BME280;58809;47.984;7.964;2023-05-03T12:47:18;97633.66;;;21.82;43.69
43701;BME280;58809;47.984;7.964;2023-05-03T12:50:29;97635.72;;;21.63;42.92
43701;BME280;58809;47.984;7.964;2023-05-03T12:53:32;97631.94;;;21.47;43.34
43701;BME280;58809;47.984;7.964;2023-05-03T12:56:37;97629.41;;;21.86;43.19
43701;BME280;58809;47.984;7.964;2023-05-03T12:59:41;97620.09;;;22.10;42.67
43701;BME280;58809;47.984;7.964;2023-05-03T13:02:44;97618.16;;;22.23;42.99
43701;BME280;58809;47.984;7.964;2023-05-03T13:05:48;97614.09;;;22.37;42.52
43701;BME280;58809;47.984;7.964;2023-05-03T13:08:50;97601.53;;;22.26;41.88
43701;BME280;58809;47.984;7.964;2023-05-03T13:11:52;97607.03;;;22.19;41.87
43701;BME280;58809;47.984;7.964;2023-05-03T13:14:55;97606.56;;;22.39;41.40
43701;BME280;58809;47.984;7.964;2023-05-03T13:17:56;97604.50;;;22.46;40.71
43701;BME280;58809;47.984;7.964;2023-05-03T13:21:01;97592.91;;;22.29;40.36
43701;BME280;58809;47.984;7.964;2023-05-03T13:24:03;97589.97;;;22.47;41.54
43701;BME280;58809;47.984;7.964;2023-05-03T13:27:05;97577.41;;;22.75;40.94
43701;BME280;58809;47.984;7.964;2023-05-03T13:30:08;97574.81;;;23.08;40.89
43701;BME280;58809;47.984;7.964;2023-05-03T13:33:10;97571.13;;;23.14;40.74
43701;BME280;58809;47.984;7.964;2023-05-03T13:39:13;97568.41;;;23.36;41.41
43701;BME280;58809;47.984;7.964;2023-05-03T13:42:14;97569.09;;;23.53;41.31
43701;BME280;58809;47.984;7.964;2023-05-03T13:45:17;97565.84;;;23.51;40.65
43701;BME280;58809;47.984;7.964;2023-05-03T13:48:18;97565.78;;;23.46;41.17
43701;BME280;58809;47.984;7.964;2023-05-03T13:51:20;97565.09;;;23.56;40.35
43701;BME280;58809;47.984;7.964;2023-05-03T13:54:22;97547.19;;;23.50;40.15
43701;BME280;58809;47.984;7.964;2023-05-03T13:57:23;97555.19;;;23.67;40.01
43701;BME280;58809;47.984;7.964;2023-05-03T14:00:25;97545.50;;;23.71;39.11
43701;BME280;58809;47.984;7.964;2023-05-03T14:03:27;97546.34;;;23.76;39.18
43701;BME280;58809;47.984;7.964;2023-05-03T14:06:29;97549.78;;;23.67;39.23
43701;BME280;58809;47.984;7.964;2023-05-03T14:09:34;97551.59;;;23.61;38.90
43701;BME280;58809;47.984;7.964;2023-05-03T14:12:39;97545.50;;;23.71;39.77
43701;BME280;58809;47.984;7.964;2023-05-03T14:15:42;97533.91;;;24.08;39.29
43701;BME280;58809;47.984;7.964;2023-05-03T14:18:50;97532.16;;;24.34;38.72
43701;BME280;58809;47.984;7.964;2023-05-03T14:21:55;97537.16;;;24.52;38.36
43701;BME280;58809;47.984;7.964;2023-05-03T14:24:59;97534.28;;;24.69;38.17
43701;BME280;58809;47.984;7.964;2023-05-03T14:28:00;97523.97;;;24.66;38.18
43701;BME280;58809;47.984;7.964;2023-05-03T14:31:03;97527.84;;;24.86;37.95
43701;BME280;58809;47.984;7.964;2023-05-03T14:34:07;97530.22;;;24.72;37.10
43701;BME280;58809;47.984;7.964;2023-05-03T14:37:08;97528.84;;;24.64;37.82
43701;BME280;58809;47.984;7.964;2023-05-03T14:40:10;97520.16;;;24.57;37.80
43701;BME280;58809;47.984;7.964;2023-05-03T14:43:13;97520.94;;;24.57;37.19
43701;BME280;58809;47.984;7.964;2023-05-03T14:46:15;97518.50;;;24.56;37.06
43701;BME280;58809;47.984;7.964;2023-05-03T14:49:17;97513.97;;;24.67;36.83
43701;BME280;58809;47.984;7.964;2023-05-03T14:52:19;97509.47;;;24.98;36.41
43701;BME280;58809;47.984;7.964;2023-05-03T14:55:21;97508.44;;;25.20;36.36
43701;BME280;58809;47.984;7.964;2023-05-03T14:58:23;97509.59;;;25.39;36.40
43701;BME280;58809;47.984;7.964;2023-05-03T15:01:24;97503.06;;;25.45;36.73
43701;BME280;58809;47.984;7.964;2023-05-03T15:04:26;97511.75;;;25.58;36.58
43701;BME280;58809;47.984;7.964;2023-05-03T15:07:28;97504.97;;;25.60;36.62
43701;BME280;58809;47.984;7.964;2023-05-03T15:10:30;97507.41;;;25.46;35.38
43701;BME280;58809;47.984;7.964;2023-05-03T15:13:31;97513.63;;;25.42;35.75
43701;BME280;58809;47.984;7.964;2023-05-03T15:16:33;97513.38;;;25.59;35.52
43701;BME280;58809;47.984;7.964;2023-05-03T15:19:37;97510.13;;;25.57;35.13
43701;BME280;58809;47.984;7.964;2023-05-03T15:22:39;97507.97;;;25.74;35.04
43701;BME280;58809;47.984;7.964;2023-05-03T15:25:40;97505.25;;;25.74;35.67
43701;BME280;58809;47.984;7.964;2023-05-03T15:28:42;97508.50;;;25.66;35.45
43701;BME280;58809;47.984;7.964;2023-05-03T15:31:43;97505.78;;;25.66;35.85
43701;BME280;58809;47.984;7.964;2023-05-03T15:34:45;97510.69;;;25.95;35.43
43701;BME280;58809;47.984;7.964;2023-05-03T15:37:47;97513.34;;;26.15;35.21
43701;BME280;58809;47.984;7.964;2023-05-03T15:40:48;97510.09;;;26.23;35.02
43701;BME280;58809;47.984;7.964;2023-05-03T15:43:50;97513.06;;;26.27;34.91
43701;BME280;58809;47.984;7.964;2023-05-03T15:46:51;97518.97;;;26.55;34.03
43701;BME280;58809;47.984;7.964;2023-05-03T15:49:55;97516.44;;;26.84;33.97
43701;BME280;58809;47.984;7.964;2023-05-03T15:52:57;97522.41;;;26.81;33.91
43701;BME280;58809;47.984;7.964;2023-05-03T15:55:59;97515.72;;;26.53;34.23
43701;BME280;58809;47.984;7.964;2023-05-03T15:59:02;97518.22;;;26.28;34.45
43701;BME280;58809;47.984;7.964;2023-05-03T16:02:04;97514.34;;;26.65;34.55
43701;BME280;58809;47.984;7.964;2023-05-03T16:05:07;97509.41;;;26.73;34.63
43701;BME280;58809;47.984;7.964;2023-05-03T16:08:09;97515.69;;;27.62;33.56
43701;BME280;58809;47.984;7.964;2023-05-03T16:11:11;97515.00;;;30.43;30.43
43701;BME280;58809;47.984;7.964;2023-05-03T16:14:13;97516.59;;;33.42;27.52
43701;BME280;58809;47.984;7.964;2023-05-03T16:17:15;97513.91;;;35.22;25.76
43701;BME280;58809;47.984;7.964;2023-05-03T16:20:17;97511.47;;;35.62;24.80
43701;BME280;58809;47.984;7.964;2023-05-03T16:23:18;97518.59;;;36.42;24.19
43701;BME280;58809;47.984;7.964;2023-05-03T16:26:20;97516.41;;;36.36;24.13